Portada
METAR-TAF:

METAR-TAF

Aeropuertos :

Aeropuerto Internacional de Sunan

Pionyang, Corea del Norte

latitud: 39-02N, longitud: 125-47E, altitud: 36 m

METAR: falta

Hora: 11:58 (03:28 UTC)

Pronóstico

El informe se hizo hace 6 horas y 18 minutos, a las 21:10 UTC
Pronóstico válido del 22 a las 00 UTC al 22 a las 24 UTC
Viento 6 kt del sureste
Visibilidad: 3000 m
neblina
Evolucionando progresivamente
del 22 a las 01 UTC al 22 a las 03 UTC
Viento 6 kt del suroeste
Visibilidad: 7000 m
Nubes dispersas a una altura de 3300 ft

TAF: ZKPY 212110Z 2200/2224 14003MPS 3000 BR NSC TX18/2206Z TN09/2221Z BECMG 2201/2203 23003MPS 7000 SCT033

Observaciones y pronósticos meteorológicos de más de 4000 aeropuertos (mensajes METAR y TAF).

Los puntos amarillos y rojos representan las estaciones disponibles.

Ponga el ratón en el punto deseado para ver el nombre de la estación.

Haga clic para ver las observaciones y los pronósticos meteorológicos.

Para cambiar el mapa : haga clic en los botones verdes con una cruz de color negro para hacer un zoom, en el botón verde con un guión para alejar o en las flechas verdes para mapas adyacentes.


METAR-TAF: